Caradan, Texas
Current Conditions -  °F | °C
As of 9:15 PM on Saturday 20 Dec 2014 (Local Time) from KLZZ Reporting Station
Overcast Overcast  
Wind Chill: 50°   Ceiling: 2200
Heat Index: 50°   Visibility: 10mi
Dew Point: 48°   Wind: 6mph
Humidity: 90%   Direction: 120°ESE
Pressure: 30.16"   Gusts: NA
Location:  31.3914°N, 98.5866°W
Report Text: KLZZ 210315Z AUTO 12005KT 10SM OVC022 10/09 A3016 RMK AO2 T01020087
Loading
Personal Weather Stations






























Interactive Weather Map New forecast layout! Learn more

10-Day Weather Forecast

Advertisements
Track Severe Weather on mobile